createdAt,value
2018-04-11T00:01:53.919Z,19.90
2018-04-11T00:04:22.773Z,19.53
2018-04-11T00:06:50.822Z,19.70
2018-04-11T00:09:19.079Z,20.33
2018-04-11T00:11:47.135Z,18.23
2018-04-11T00:14:15.211Z,18.40
2018-04-11T00:16:44.033Z,19.27
2018-04-11T00:19:12.100Z,18.80
2018-04-11T00:21:40.150Z,21.90
2018-04-11T00:24:09.130Z,21.80
2018-04-11T00:26:38.079Z,21.37
2018-04-11T00:29:06.145Z,21.47
2018-04-11T00:31:34.206Z,21.20
2018-04-11T00:34:02.277Z,19.80
2018-04-11T00:36:30.338Z,21.13
2018-04-11T00:38:58.493Z,20.40
2018-04-11T00:41:26.592Z,21.03
2018-04-11T00:43:54.650Z,20.03
2018-04-11T00:46:22.773Z,21.00
2018-04-11T00:48:50.820Z,20.07
2018-04-11T00:51:18.886Z,20.10
2018-04-11T00:53:46.951Z,22.43
2018-04-11T00:56:15.039Z,20.97
2018-04-11T00:58:43.095Z,19.97
2018-04-11T01:01:11.169Z,21.80
2018-04-11T01:03:39.231Z,21.47
2018-04-11T01:06:07.418Z,21.40
2018-04-11T01:08:35.490Z,21.10
2018-04-11T01:11:03.597Z,23.03
2018-04-11T01:13:31.652Z,22.50
2018-04-11T01:15:59.694Z,22.40
2018-04-11T01:18:27.773Z,20.47
2018-04-11T01:20:55.847Z,20.50
2018-04-11T01:23:23.902Z,21.90
2018-04-11T01:25:51.994Z,20.77
2018-04-11T01:28:20.025Z,18.13
2018-04-11T01:30:48.142Z,21.17
2018-04-11T01:33:16.170Z,20.67
2018-04-11T01:35:44.215Z,21.70
2018-04-11T01:38:13.047Z,19.83
2018-04-11T01:40:41.085Z,20.10
2018-04-11T01:43:09.891Z,20.00
2018-04-11T01:45:37.973Z,20.50
2018-04-11T01:48:06.035Z,19.07
2018-04-11T01:50:34.858Z,19.73
2018-04-11T01:53:02.964Z,21.57
2018-04-11T01:55:31.042Z,20.30
2018-04-11T01:57:59.526Z,21.30
2018-04-11T02:00:28.333Z,20.63
2018-04-11T02:02:56.416Z,20.27
2018-04-11T02:05:24.554Z,21.50
2018-04-11T02:07:52.605Z,20.40
2018-04-11T02:10:20.665Z,20.80
2018-04-11T02:12:48.706Z,20.20
2018-04-11T02:15:16.758Z,19.70
2018-04-11T02:17:45.595Z,20.20
2018-04-11T02:20:13.631Z,19.53
2018-04-11T02:22:41.702Z,18.70
2018-04-11T02:25:10.236Z,18.60
2018-04-11T02:27:38.258Z,20.30
2018-04-11T02:30:06.316Z,19.60
2018-04-11T02:32:34.400Z,18.50
2018-04-11T02:35:02.449Z,19.17
2018-04-11T02:37:32.503Z,17.90
2018-04-11T02:40:01.418Z,17.40
2018-04-11T02:42:29.466Z,17.60
2018-04-11T02:44:57.555Z,17.73
2018-04-11T02:47:25.619Z,17.30
2018-04-11T02:49:53.717Z,18.93
2018-04-11T02:52:21.755Z,17.80
2018-04-11T02:54:49.822Z,16.70
2018-04-11T02:57:17.878Z,17.07
2018-04-11T02:59:45.943Z,17.90
2018-04-11T03:02:14.014Z,17.83
2018-04-11T03:04:42.213Z,18.70
2018-04-11T03:07:10.955Z,19.87
2018-04-11T03:09:39.901Z,18.43
2018-04-11T03:12:07.942Z,17.50
2018-04-11T03:14:36.034Z,16.43
2018-04-11T03:17:04.087Z,17.70
2018-04-11T03:19:32.158Z,18.67
2018-04-11T03:22:00.200Z,17.33
2018-04-11T03:24:29.045Z,17.00
2018-04-11T03:26:58.133Z,17.17
2018-04-11T03:29:26.227Z,17.27
2018-04-11T03:31:54.274Z,19.40
2018-04-11T03:34:22.376Z,17.87
2018-04-11T03:36:50.441Z,15.40
2018-04-11T03:39:18.512Z,16.63
2018-04-11T03:41:46.570Z,16.30
2018-04-11T03:44:14.635Z,17.43
2018-04-11T03:46:42.751Z,16.13
2018-04-11T03:49:10.840Z,16.60
2018-04-11T03:51:38.892Z,16.43
2018-04-11T03:54:06.958Z,15.23
2018-04-11T03:56:35.010Z,17.30
2018-04-11T03:59:03.083Z,17.07
2018-04-11T04:01:31.262Z,17.50
2018-04-11T04:03:59.416Z,17.43
2018-04-11T04:06:27.445Z,17.33
2018-04-11T04:08:55.518Z,17.70
2018-04-11T04:11:23.738Z,17.07
2018-04-11T04:14:03.621Z,16.60
2018-04-11T04:16:43.561Z,17.47
2018-04-11T04:19:17.383Z,17.23
2018-04-11T04:21:46.235Z,18.07
2018-04-11T04:24:14.472Z,18.40
2018-04-11T04:26:43.299Z,16.80
2018-04-11T04:29:11.451Z,17.73
2018-04-11T04:31:39.700Z,17.97
2018-04-11T04:34:07.720Z,17.53
2018-04-11T04:36:35.843Z,17.90
2018-04-11T04:39:03.882Z,18.43
2018-04-11T04:41:31.912Z,16.63
2018-04-11T04:43:59.957Z,17.27
2018-04-11T04:46:28.031Z,17.10
2018-04-11T04:48:56.766Z,18.03
2018-04-11T04:51:24.837Z,17.77
2018-04-11T04:53:53.609Z,19.13
2018-04-11T04:56:21.664Z,16.00
2018-04-11T04:58:49.742Z,18.23
2018-04-11T05:01:17.805Z,17.83
2018-04-11T05:03:45.868Z,18.33
2018-04-11T05:06:14.099Z,18.50
2018-04-11T05:08:42.173Z,17.57
2018-04-11T05:11:10.274Z,16.10
2018-04-11T05:13:38.346Z,17.40
2018-04-11T05:16:06.378Z,16.27
2018-04-11T05:18:34.454Z,18.60
2018-04-11T05:21:02.530Z,16.53
2018-04-11T05:23:30.593Z,16.80
2018-04-11T05:25:58.704Z,17.10
2018-04-11T05:28:27.534Z,18.20
2018-04-11T05:30:56.362Z,16.70
2018-04-11T05:33:25.995Z,18.43
2018-04-11T05:35:54.066Z,18.30
2018-04-11T05:38:22.097Z,16.43
2018-04-11T05:40:50.160Z,17.47
2018-04-11T05:43:18.229Z,18.20
2018-04-11T05:45:46.273Z,17.67
2018-04-11T05:48:14.330Z,18.57
2018-04-11T05:50:42.402Z,16.93
2018-04-11T05:53:10.477Z,16.50
2018-04-11T05:55:38.525Z,17.77
2018-04-11T05:58:06.574Z,18.50
2018-04-11T06:00:34.667Z,19.80
2018-04-11T06:03:03.525Z,16.97
2018-04-11T06:05:31.634Z,18.20
2018-04-11T06:07:59.661Z,17.30
2018-04-11T06:10:27.723Z,17.00
2018-04-11T06:12:55.768Z,16.63
2018-04-11T06:15:23.821Z,16.97
2018-04-11T06:17:51.994Z,18.60
2018-04-11T06:20:20.035Z,18.53
2018-04-11T06:22:48.200Z,20.10
2018-04-11T06:25:16.147Z,17.00
2018-04-11T06:27:44.201Z,18.80
2018-04-11T06:30:12.294Z,17.50
2018-04-11T06:32:40.335Z,18.53
2018-04-11T06:35:08.563Z,17.93
2018-04-11T06:37:36.942Z,18.00
2018-04-11T06:40:05.764Z,20.00
2018-04-11T06:42:34.602Z,18.80
2018-04-11T06:45:02.664Z,16.17
2018-04-11T06:47:31.512Z,19.60
2018-04-11T06:50:00.331Z,17.70
2018-04-11T06:52:28.475Z,19.87
2018-04-11T06:54:57.877Z,19.67
2018-04-11T06:57:25.803Z,21.13
2018-04-11T06:59:53.883Z,20.53
2018-04-11T07:02:21.936Z,19.20
2018-04-11T07:04:50.006Z,20.47
2018-04-11T07:07:18.082Z,19.80
2018-04-11T07:09:46.122Z,19.80
2018-04-11T07:12:14.209Z,19.30
2018-04-11T07:14:43.028Z,20.83
2018-04-11T07:17:11.078Z,22.47
2018-04-11T07:19:39.138Z,21.50
2018-04-11T07:22:07.201Z,20.30
2018-04-11T07:24:36.098Z,19.53
2018-04-11T07:27:04.158Z,19.30
2018-04-11T07:29:32.202Z,18.87
2018-04-11T07:32:00.273Z,20.83
2018-04-11T07:34:28.351Z,20.70
2018-04-11T07:36:56.531Z,20.30
2018-04-11T07:39:24.561Z,20.03
2018-04-11T07:41:52.626Z,20.20
2018-04-11T07:44:20.728Z,19.97
2018-04-11T07:46:48.910Z,20.17
2018-04-11T07:49:16.982Z,20.23
2018-04-11T07:51:45.054Z,21.57
2018-04-11T07:54:13.114Z,22.70
2018-04-11T07:56:41.960Z,23.37
2018-04-11T07:59:10.834Z,22.80
2018-04-11T08:01:38.902Z,20.30
2018-04-11T08:04:06.954Z,21.67
2018-04-11T08:06:35.028Z,21.50
2018-04-11T08:09:03.063Z,21.93
2018-04-11T08:11:31.130Z,19.70
2018-04-11T08:13:59.187Z,20.77
2018-04-11T08:16:27.235Z,23.23
2018-04-11T08:18:55.359Z,23.90
2018-04-11T08:21:23.393Z,23.27
2018-04-11T08:23:51.348Z,24.47
2018-04-11T08:26:19.429Z,21.57
2018-04-11T08:28:49.270Z,22.83
2018-04-11T08:31:17.328Z,23.73
2018-04-11T08:33:45.458Z,21.60
2018-04-11T08:36:13.522Z,22.90
2018-04-11T08:38:41.581Z,23.50
2018-04-11T08:41:09.644Z,23.53
2018-04-11T08:43:38.492Z,22.33
2018-04-11T08:46:06.590Z,22.70
2018-04-11T08:48:34.634Z,21.63
2018-04-11T08:51:02.672Z,20.90
2018-04-11T08:53:30.752Z,21.97
2018-04-11T08:55:58.820Z,23.67
2018-04-11T08:58:26.887Z,22.50
2018-04-11T09:00:54.940Z,22.47
2018-04-11T09:03:23.026Z,22.10
2018-04-11T09:05:51.166Z,20.83
2018-04-11T09:08:19.997Z,20.47
2018-04-11T09:10:48.056Z,20.83
2018-04-11T09:13:16.168Z,21.97
2018-04-11T09:15:44.401Z,19.90
2018-04-11T09:18:12.452Z,20.97
2018-04-11T09:20:41.269Z,19.63
2018-04-11T09:23:09.333Z,20.60
2018-04-11T09:25:37.388Z,21.87
2018-04-11T09:28:06.218Z,20.80
2018-04-11T09:30:34.255Z,19.87
2018-04-11T09:33:02.339Z,21.30
2018-04-11T09:35:30.393Z,23.10
2018-04-11T09:37:59.214Z,22.73
2018-04-11T09:40:27.286Z,21.67
2018-04-11T09:42:55.591Z,22.70
2018-04-11T09:45:23.616Z,23.63
2018-04-11T09:47:51.714Z,23.17
2018-04-11T09:50:19.750Z,24.20
2018-04-11T09:52:47.838Z,23.40
2018-04-11T09:55:15.902Z,24.13
2018-04-11T09:57:43.958Z,22.40
2018-04-11T10:00:12.787Z,22.77
2018-04-11T10:02:40.857Z,25.50
2018-04-11T10:05:08.923Z,23.13
2018-04-11T10:07:36.968Z,26.37
2018-04-11T10:10:05.051Z,25.13
2018-04-11T10:12:33.113Z,25.97
2018-04-11T10:15:01.178Z,25.40
2018-04-11T10:17:29.225Z,23.60
2018-04-11T10:19:57.274Z,24.97
2018-04-11T10:22:25.346Z,23.40
2018-04-11T10:24:53.420Z,27.13
2018-04-11T10:27:21.472Z,26.30
2018-04-11T10:29:49.545Z,24.10
2018-04-11T10:32:17.888Z,25.40
2018-04-11T10:34:46.067Z,26.97
2018-04-11T10:37:14.112Z,29.27
2018-04-11T10:39:42.941Z,28.27
2018-04-11T10:42:10.975Z,28.47
2018-04-11T10:44:39.807Z,34.20
2018-04-11T10:47:07.874Z,32.83
2018-04-11T10:49:35.924Z,31.20
2018-04-11T10:52:03.961Z,31.10
2018-04-11T10:54:32.067Z,32.73
2018-04-11T10:57:00.078Z,26.70
2018-04-11T10:59:28.162Z,28.20
2018-04-11T11:01:56.281Z,26.00
2018-04-11T11:04:24.455Z,30.57
2018-04-11T11:06:52.510Z,28.67
2018-04-11T11:09:21.321Z,29.97
2018-04-11T11:11:49.380Z,27.93
2018-04-11T11:14:18.212Z,27.10
2018-04-11T11:16:46.309Z,28.33
2018-04-11T11:19:14.366Z,30.23
2018-04-11T11:21:42.439Z,27.33
2018-04-11T11:24:11.246Z,28.77
2018-04-11T11:26:39.310Z,24.93
2018-04-11T11:29:07.367Z,26.70
2018-04-11T11:31:35.442Z,24.53
2018-04-11T11:34:03.491Z,28.60
2018-04-11T11:36:31.538Z,26.17
2018-04-11T11:38:59.620Z,23.97
2018-04-11T11:41:27.688Z,27.13
2018-04-11T11:43:55.787Z,26.80
2018-04-11T11:46:23.829Z,28.10
2018-04-11T11:48:51.873Z,27.33
2018-04-11T11:51:20.780Z,27.90
2018-04-11T11:53:48.804Z,27.33
2018-04-11T11:56:17.910Z,25.33
2018-04-11T11:58:45.971Z,27.13
2018-04-11T12:01:14.018Z,26.90
2018-04-11T12:03:42.086Z,26.83
2018-04-11T12:06:10.157Z,29.17
2018-04-11T12:08:38.210Z,28.03
2018-04-11T12:11:06.279Z,30.10
2018-04-11T12:13:34.355Z,32.53
2018-04-11T12:16:02.397Z,29.13
2018-04-11T12:18:31.240Z,29.33
2018-04-11T12:20:59.311Z,30.87
2018-04-11T12:23:27.348Z,29.13
2018-04-11T12:25:55.415Z,31.10
2018-04-11T12:28:23.490Z,27.67
2018-04-11T12:30:52.297Z,28.83
2018-04-11T12:33:21.355Z,30.53
2018-04-11T12:35:49.410Z,30.50
2018-04-11T12:38:17.457Z,27.33
2018-04-11T12:40:45.501Z,29.53
2018-04-11T12:43:13.658Z,26.80
2018-04-11T12:45:41.691Z,27.63
2018-04-11T12:48:09.814Z,26.00
2018-04-11T12:50:38.593Z,28.57
2018-04-11T12:53:06.662Z,27.80
2018-04-11T12:55:34.735Z,28.80
2018-04-11T12:58:02.782Z,29.20
2018-04-11T13:00:30.841Z,27.97
2018-04-11T13:02:58.946Z,28.17
2018-04-11T13:05:26.985Z,26.40
2018-04-11T13:07:55.021Z,27.80
2018-04-11T13:10:23.062Z,28.03
2018-04-11T13:12:51.169Z,31.67
2018-04-11T13:15:19.218Z,29.50
2018-04-11T13:17:47.305Z,30.30
2018-04-11T13:20:15.350Z,30.73
2018-04-11T13:22:43.428Z,33.73
2018-04-11T13:25:11.462Z,33.33
2018-04-11T13:27:40.308Z,33.23
2018-04-11T13:30:08.405Z,33.37
2018-04-11T13:32:36.470Z,32.60
2018-04-11T13:35:04.527Z,32.67
2018-04-11T13:37:32.665Z,31.00
2018-04-11T13:40:00.675Z,35.23
2018-04-11T13:42:28.745Z,30.70
2018-04-11T13:44:56.795Z,32.93
2018-04-11T13:47:24.877Z,33.93
2018-04-11T13:49:52.945Z,30.83
2018-04-11T13:52:21.037Z,31.50
2018-04-11T13:54:49.078Z,29.63
2018-04-11T13:57:17.130Z,28.50
2018-04-11T13:59:46.533Z,31.90
2018-04-11T14:02:15.367Z,29.63
2018-04-11T14:04:43.400Z,28.80
2018-04-11T14:07:11.490Z,31.07
2018-04-11T14:09:39.580Z,32.00
2018-04-11T14:12:07.630Z,30.97
2018-04-11T14:14:35.687Z,31.33
2018-04-11T14:17:03.756Z,28.20
2018-04-11T14:19:31.811Z,30.97
2018-04-11T14:22:00.626Z,30.30
2018-04-11T14:24:28.703Z,31.80
2018-04-11T14:26:56.775Z,32.23
2018-04-11T14:29:24.812Z,31.67
2018-04-11T14:31:53.634Z,31.30
2018-04-11T14:34:21.700Z,31.20
2018-04-11T14:36:49.965Z,30.67
2018-04-11T14:39:17.965Z,29.80
2018-04-11T14:41:46.023Z,29.33
2018-04-11T14:44:14.081Z,33.23
2018-04-11T14:46:42.130Z,29.80
2018-04-11T14:49:10.996Z,28.13
2018-04-11T14:51:39.064Z,29.23
2018-04-11T14:54:07.146Z,29.40
2018-04-11T14:56:35.165Z,33.00
2018-04-11T14:59:03.209Z,35.00
2018-04-11T15:01:31.279Z,30.87
2018-04-11T15:04:00.106Z,30.30
2018-04-11T15:06:29.035Z,29.40
2018-04-11T15:11:31.423Z,30.23
2018-04-11T15:13:59.496Z,29.67
2018-04-11T15:16:27.576Z,26.90
2018-04-11T15:18:55.613Z,25.33
2018-04-11T15:21:23.682Z,25.20
2018-04-11T15:23:51.770Z,26.03
2018-04-11T15:26:19.868Z,26.20
2018-04-11T15:28:47.917Z,29.50
2018-04-11T15:31:16.010Z,27.07
2018-04-11T15:33:44.037Z,24.07
2018-04-11T15:36:12.098Z,29.77
2018-04-11T15:38:40.169Z,24.73
2018-04-11T15:41:08.936Z,25.87
2018-04-11T15:43:36.998Z,25.67
2018-04-11T15:46:05.981Z,27.80
2018-04-11T15:48:34.819Z,27.33
2018-04-11T15:51:02.882Z,30.17
2018-04-11T15:53:30.936Z,29.73
2018-04-11T15:55:59.018Z,31.00
2018-04-11T15:58:27.077Z,33.07
2018-04-11T16:00:55.182Z,33.50
2018-04-11T16:03:23.242Z,34.17
2018-04-11T16:05:51.327Z,35.70
2018-04-11T16:08:19.374Z,32.87
2018-04-11T16:10:47.464Z,33.70
2018-04-11T16:13:15.503Z,33.33
2018-04-11T16:15:43.571Z,30.83
2018-04-11T16:18:11.618Z,33.70
2018-04-11T16:20:41.184Z,34.73
2018-04-11T16:23:09.320Z,33.77
2018-04-11T16:25:37.841Z,37.63
2018-04-11T16:28:05.876Z,30.80
2018-04-11T16:30:34.366Z,30.03
2018-04-11T16:33:02.426Z,33.20
2018-04-11T16:35:30.514Z,37.07
2018-04-11T16:37:59.446Z,41.60
2018-04-11T16:40:27.487Z,42.10
2018-04-11T16:42:55.580Z,42.17
2018-04-11T16:45:23.605Z,42.83
2018-04-11T16:47:51.697Z,38.77
2018-04-11T16:50:19.830Z,36.20
2018-04-11T16:52:48.637Z,36.30
2018-04-11T16:55:16.758Z,39.87
2018-04-11T16:57:45.477Z,35.00
2018-04-11T17:00:14.334Z,36.43
2018-04-11T17:02:42.453Z,48.80
2018-04-11T17:05:10.879Z,42.40
2018-04-11T17:07:39.008Z,39.43
2018-04-11T17:10:07.807Z,41.40
2018-04-11T17:12:35.862Z,37.90
2018-04-11T17:15:04.700Z,35.27
2018-04-11T17:17:32.725Z,34.47
2018-04-11T17:20:00.812Z,37.07
2018-04-11T17:22:40.659Z,35.37
2018-04-11T17:25:20.951Z,36.50
2018-04-11T17:28:01.898Z,35.30
2018-04-11T17:30:41.929Z,33.17
2018-04-11T17:33:09.990Z,36.03
2018-04-11T17:35:39.315Z,36.70
2018-04-11T17:38:07.377Z,38.63
2018-04-11T17:40:35.446Z,35.37
2018-04-11T17:43:04.332Z,34.37
2018-04-11T17:45:33.222Z,36.10
2018-04-11T17:48:01.285Z,36.23
2018-04-11T17:50:30.910Z,35.67
2018-04-11T17:52:59.010Z,33.70
2018-04-11T17:55:27.108Z,34.93
2018-04-11T17:57:55.208Z,33.43
2018-04-11T18:00:24.418Z,32.70
2018-04-11T18:02:53.253Z,33.20
2018-04-11T18:05:21.325Z,33.50
2018-04-11T18:07:49.431Z,35.53
2018-04-11T18:10:17.517Z,36.37
2018-04-11T18:12:45.699Z,38.60
2018-04-11T18:15:14.526Z,36.87
2018-04-11T18:17:42.670Z,35.30
2018-04-11T18:20:11.514Z,34.30
2018-04-11T18:22:39.587Z,35.00
2018-04-11T18:25:09.168Z,33.87
2018-04-11T18:27:37.214Z,33.53
2018-04-11T18:30:05.261Z,31.67
2018-04-11T18:32:34.169Z,36.53
2018-04-11T18:35:02.178Z,32.00
2018-04-11T18:37:31.617Z,29.20
2018-04-11T18:39:59.574Z,33.37
2018-04-11T18:42:27.651Z,32.57
2018-04-11T18:44:55.707Z,32.90
2018-04-11T18:47:25.109Z,33.23
2018-04-11T18:49:53.082Z,32.00
2018-04-11T18:52:21.143Z,30.37
2018-04-11T18:54:49.443Z,31.77
2018-04-11T18:57:17.504Z,30.20
2018-04-11T18:59:45.582Z,29.00
2018-04-11T19:02:13.640Z,25.93
2018-04-11T19:04:41.714Z,29.37
2018-04-11T19:07:11.363Z,26.57
2018-04-11T19:09:39.421Z,31.07
2018-04-11T19:12:08.266Z,26.67
2018-04-11T19:14:36.339Z,27.50
2018-04-11T19:17:04.466Z,24.17
2018-04-11T19:19:32.509Z,22.20
2018-04-11T19:22:01.282Z,26.40
2018-04-11T19:24:29.350Z,22.37
2018-04-11T19:26:57.435Z,24.57
2018-04-11T19:29:26.532Z,28.30
2018-04-11T19:31:54.596Z,26.80
2018-04-11T19:34:22.656Z,26.83
2018-04-11T19:36:50.715Z,24.43
2018-04-11T19:39:18.770Z,27.90
2018-04-11T19:41:47.054Z,27.60
2018-04-11T19:44:15.116Z,29.50
2018-04-11T19:46:43.223Z,24.60
2018-04-11T19:49:11.248Z,28.93
2018-04-11T19:51:39.298Z,29.63
2018-04-11T19:54:07.367Z,31.30
2018-04-11T19:56:35.497Z,23.03
2018-04-11T19:59:04.113Z,31.67
2018-04-11T20:01:32.149Z,31.97
2018-04-11T20:04:00.239Z,33.77
2018-04-11T20:06:28.284Z,31.20
2018-04-11T20:08:56.364Z,33.60
2018-04-11T20:11:24.727Z,33.13
2018-04-11T20:13:53.550Z,30.53
2018-04-11T20:16:22.374Z,31.00
2018-04-11T20:18:50.466Z,30.50
2018-04-11T20:21:20.790Z,32.33
2018-04-11T20:23:48.883Z,30.97
2018-04-11T20:26:18.986Z,29.10
2018-04-11T20:28:47.050Z,27.30
2018-04-11T20:31:15.502Z,28.80
2018-04-11T20:33:45.552Z,32.60
2018-04-11T20:36:13.620Z,28.57
2018-04-11T20:38:42.820Z,31.97
2018-04-11T20:41:10.883Z,30.70
2018-04-11T20:43:39.010Z,32.00
2018-04-11T20:46:07.057Z,30.80
2018-04-11T20:48:35.123Z,28.93
2018-04-11T20:51:04.464Z,32.40
2018-04-11T20:53:33.522Z,33.20
2018-04-11T20:56:01.564Z,29.63
2018-04-11T20:58:31.249Z,34.60
2018-04-11T21:01:00.074Z,30.97
2018-04-11T21:03:28.607Z,33.57
2018-04-11T21:06:01.655Z,33.50
2018-04-11T21:08:30.538Z,34.47
2018-04-11T21:10:59.354Z,33.30
2018-04-11T21:13:27.417Z,35.03
2018-04-11T21:15:55.492Z,34.77
2018-04-11T21:18:24.254Z,32.73
2018-04-11T21:20:52.309Z,31.40
2018-04-11T21:23:21.102Z,33.10
2018-04-11T21:25:49.178Z,37.53
2018-04-11T21:28:17.907Z,35.43
2018-04-11T21:30:46.715Z,36.17
2018-04-11T21:33:14.869Z,33.53
2018-04-11T21:35:42.927Z,37.20
2018-04-11T21:38:11.987Z,36.27
2018-04-11T21:40:40.910Z,37.03
2018-04-11T21:43:08.979Z,36.80
2018-04-11T21:45:38.206Z,35.80
2018-04-11T21:48:07.138Z,38.07
2018-04-11T21:50:35.174Z,36.33
2018-04-11T21:53:03.233Z,34.00
2018-04-11T21:55:31.326Z,36.43
2018-04-11T21:57:59.822Z,39.10
2018-04-11T22:00:27.891Z,34.70
2018-04-11T22:02:56.769Z,37.20
2018-04-11T22:05:24.886Z,36.40
2018-04-11T22:07:52.967Z,36.47
2018-04-11T22:10:22.031Z,31.63
2018-04-11T22:12:50.682Z,34.63
2018-04-11T22:15:19.171Z,34.00
2018-04-11T22:17:48.727Z,36.13
2018-04-11T22:20:16.778Z,35.87
2018-04-11T22:22:45.308Z,35.93
2018-04-11T22:25:13.394Z,35.13
2018-04-11T22:27:42.724Z,34.30
2018-04-11T22:30:10.747Z,32.23
2018-04-11T22:32:38.791Z,36.47
2018-04-11T22:35:06.876Z,36.33
2018-04-11T22:37:34.974Z,34.03
2018-04-11T22:40:03.043Z,35.00
2018-04-11T22:42:31.115Z,36.20
2018-04-11T22:44:59.215Z,34.60
2018-04-11T22:47:28.067Z,34.83
2018-04-11T22:49:56.193Z,36.43
2018-04-11T22:52:24.249Z,36.57
2018-04-11T22:54:52.285Z,36.00
2018-04-11T22:57:20.381Z,34.80
2018-04-11T22:59:48.484Z,34.40
2018-04-11T23:02:16.517Z,37.53
2018-04-11T23:04:44.572Z,38.97
2018-04-11T23:07:12.637Z,38.70
2018-04-11T23:09:40.707Z,40.40
2018-04-11T23:12:08.763Z,38.27
2018-04-11T23:14:36.851Z,35.43
2018-04-11T23:17:04.913Z,36.47
2018-04-11T23:19:32.981Z,37.53
2018-04-11T23:22:01.037Z,37.70
2018-04-11T23:24:29.117Z,36.40
2018-04-11T23:26:57.170Z,36.80
2018-04-11T23:29:25.258Z,37.53
2018-04-11T23:31:53.302Z,38.30
2018-04-11T23:34:21.402Z,37.90
2018-04-11T23:36:49.483Z,38.20
2018-04-11T23:39:17.559Z,39.17
2018-04-11T23:41:45.621Z,34.20
2018-04-11T23:44:13.684Z,36.87
2018-04-11T23:46:41.767Z,37.17
2018-04-11T23:49:09.824Z,39.73
2018-04-11T23:51:37.911Z,35.83
2018-04-11T23:54:05.978Z,35.77
2018-04-11T23:56:34.038Z,38.50
2018-04-11T23:59:02.116Z,40.00
